sensor_id;sensor_type;location;lat;lon;timestamp;temperature;humidity
44607;DHT22;30315;46.072;14.474;2023-04-03T00:00:53;14.30;56.30
44607;DHT22;30315;46.072;14.474;2023-04-03T00:03:20;14.30;56.30
44607;DHT22;30315;46.072;14.474;2023-04-03T00:05:48;14.30;56.10
44607;DHT22;30315;46.072;14.474;2023-04-03T00:08:14;14.30;55.90
44607;DHT22;30315;46.072;14.474;2023-04-03T00:10:41;14.20;55.80
44607;DHT22;30315;46.072;14.474;2023-04-03T00:13:09;14.30;56.00
44607;DHT22;30315;46.072;14.474;2023-04-03T00:15:37;14.20;56.70
44607;DHT22;30315;46.072;14.474;2023-04-03T00:18:05;14.20;56.00
44607;DHT22;30315;46.072;14.474;2023-04-03T00:20:32;14.20;55.80
44607;DHT22;30315;46.072;14.474;2023-04-03T00:23:01;14.20;55.70
44607;DHT22;30315;46.072;14.474;2023-04-03T00:25:28;14.20;55.90
44607;DHT22;30315;46.072;14.474;2023-04-03T00:27:55;14.20;55.90
44607;DHT22;30315;46.072;14.474;2023-04-03T00:30:23;14.20;55.50
44607;DHT22;30315;46.072;14.474;2023-04-03T00:32:51;14.10;55.50
44607;DHT22;30315;46.072;14.474;2023-04-03T00:35:20;14.10;55.70
44607;DHT22;30315;46.072;14.474;2023-04-03T00:37:47;14.10;55.70
44607;DHT22;30315;46.072;14.474;2023-04-03T00:40:15;14.10;55.60
44607;DHT22;30315;46.072;14.474;2023-04-03T00:42:43;14.00;55.70
44607;DHT22;30315;46.072;14.474;2023-04-03T00:47:38;14.00;56.00
44607;DHT22;30315;46.072;14.474;2023-04-03T00:50:06;14.00;56.10
44607;DHT22;30315;46.072;14.474;2023-04-03T00:52:33;14.00;55.70
44607;DHT22;30315;46.072;14.474;2023-04-03T00:55:04;14.00;55.70
44607;DHT22;30315;46.072;14.474;2023-04-03T00:57:32;13.90;55.40
44607;DHT22;30315;46.072;14.474;2023-04-03T01:00:05;13.90;55.70
44607;DHT22;30315;46.072;14.474;2023-04-03T01:02:33;13.90;55.40
44607;DHT22;30315;46.072;14.474;2023-04-03T01:05:00;13.90;55.30
44607;DHT22;30315;46.072;14.474;2023-04-03T01:07:30;13.80;55.30
44607;DHT22;30315;46.072;14.474;2023-04-03T01:10:00;13.80;55.10
44607;DHT22;30315;46.072;14.474;2023-04-03T01:12:36;13.80;54.90
44607;DHT22;30315;46.072;14.474;2023-04-03T01:15:10;13.80;54.80
44607;DHT22;30315;46.072;14.474;2023-04-03T01:17:46;13.70;54.80
44607;DHT22;30315;46.072;14.474;2023-04-03T01:28:11;13.50;54.00
44607;DHT22;30315;46.072;14.474;2023-04-03T01:33:20;13.40;54.10
44607;DHT22;30315;46.072;14.474;2023-04-03T01:35:48;13.40;54.20
44607;DHT22;30315;46.072;14.474;2023-04-03T01:38:15;13.40;54.40
44607;DHT22;30315;46.072;14.474;2023-04-03T01:40:43;13.30;53.90
44607;DHT22;30315;46.072;14.474;2023-04-03T01:43:10;13.30;53.80
44607;DHT22;30315;46.072;14.474;2023-04-03T01:45:37;13.30;53.80
44607;DHT22;30315;46.072;14.474;2023-04-03T01:48:04;13.20;53.50
44607;DHT22;30315;46.072;14.474;2023-04-03T01:50:31;13.30;53.40
44607;DHT22;30315;46.072;14.474;2023-04-03T01:52:58;13.20;53.20
44607;DHT22;30315;46.072;14.474;2023-04-03T01:55:25;13.20;53.00
44607;DHT22;30315;46.072;14.474;2023-04-03T01:57:52;13.10;52.90
44607;DHT22;30315;46.072;14.474;2023-04-03T02:00:19;13.20;52.90
44607;DHT22;30315;46.072;14.474;2023-04-03T02:02:46;13.10;52.70
44607;DHT22;30315;46.072;14.474;2023-04-03T02:05:13;13.10;52.70
44607;DHT22;30315;46.072;14.474;2023-04-03T02:07:40;13.10;52.20
44607;DHT22;30315;46.072;14.474;2023-04-03T02:10:07;13.00;51.90
44607;DHT22;30315;46.072;14.474;2023-04-03T02:12:34;13.00;52.20
44607;DHT22;30315;46.072;14.474;2023-04-03T02:15:01;12.90;52.00
44607;DHT22;30315;46.072;14.474;2023-04-03T02:20:31;12.80;51.90
44607;DHT22;30315;46.072;14.474;2023-04-03T02:22:59;12.70;52.00
44607;DHT22;30315;46.072;14.474;2023-04-03T02:25:26;12.80;52.10
44607;DHT22;30315;46.072;14.474;2023-04-03T02:27:53;12.70;52.10
44607;DHT22;30315;46.072;14.474;2023-04-03T02:30:20;12.80;52.00
44607;DHT22;30315;46.072;14.474;2023-04-03T02:32:47;12.70;51.90
44607;DHT22;30315;46.072;14.474;2023-04-03T02:35:14;12.60;51.50
44607;DHT22;30315;46.072;14.474;2023-04-03T02:37:42;12.60;51.50
44607;DHT22;30315;46.072;14.474;2023-04-03T02:40:09;12.50;51.30
44607;DHT22;30315;46.072;14.474;2023-04-03T02:42:38;12.50;51.20
44607;DHT22;30315;46.072;14.474;2023-04-03T02:45:06;12.40;51.30
44607;DHT22;30315;46.072;14.474;2023-04-03T02:47:33;12.30;51.30
44607;DHT22;30315;46.072;14.474;2023-04-03T02:50:00;12.30;51.80
44607;DHT22;30315;46.072;14.474;2023-04-03T02:52:27;12.30;52.20
44607;DHT22;30315;46.072;14.474;2023-04-03T02:54:56;12.20;52.30
44607;DHT22;30315;46.072;14.474;2023-04-03T02:57:23;12.20;52.20
44607;DHT22;30315;46.072;14.474;2023-04-03T02:59:50;12.20;52.40
44607;DHT22;30315;46.072;14.474;2023-04-03T03:02:17;12.10;52.50
44607;DHT22;30315;46.072;14.474;2023-04-03T03:04:44;12.10;52.60
44607;DHT22;30315;46.072;14.474;2023-04-03T03:07:11;12.10;52.30
44607;DHT22;30315;46.072;14.474;2023-04-03T03:09:38;12.00;52.00
44607;DHT22;30315;46.072;14.474;2023-04-03T03:12:05;11.90;51.90
44607;DHT22;30315;46.072;14.474;2023-04-03T03:14:32;11.90;51.50
44607;DHT22;30315;46.072;14.474;2023-04-03T03:16:59;11.80;51.20
44607;DHT22;30315;46.072;14.474;2023-04-03T03:19:25;11.70;51.30
44607;DHT22;30315;46.072;14.474;2023-04-03T03:21:52;11.60;51.00
44607;DHT22;30315;46.072;14.474;2023-04-03T03:24:19;11.50;51.10
44607;DHT22;30315;46.072;14.474;2023-04-03T03:26:47;11.50;51.40
44607;DHT22;30315;46.072;14.474;2023-04-03T03:29:14;11.40;51.30
44607;DHT22;30315;46.072;14.474;2023-04-03T03:31:42;11.30;51.00
44607;DHT22;30315;46.072;14.474;2023-04-03T03:34:09;11.30;51.10
44607;DHT22;30315;46.072;14.474;2023-04-03T03:36:36;11.20;51.10
44607;DHT22;30315;46.072;14.474;2023-04-03T03:39:03;11.20;51.10
44607;DHT22;30315;46.072;14.474;2023-04-03T03:41:30;11.10;51.00
44607;DHT22;30315;46.072;14.474;2023-04-03T03:43:57;11.00;50.90
44607;DHT22;30315;46.072;14.474;2023-04-03T03:46:27;11.20;51.40
44607;DHT22;30315;46.072;14.474;2023-04-03T03:48:54;10.90;51.20
44607;DHT22;30315;46.072;14.474;2023-04-03T03:51:21;10.80;51.20
44607;DHT22;30315;46.072;14.474;2023-04-03T03:53:48;10.70;51.20
44607;DHT22;30315;46.072;14.474;2023-04-03T03:56:18;10.70;51.40
44607;DHT22;30315;46.072;14.474;2023-04-03T03:58:45;10.60;51.50
44607;DHT22;30315;46.072;14.474;2023-04-03T04:01:13;10.60;52.20
44607;DHT22;30315;46.072;14.474;2023-04-03T04:03:45;10.60;51.80
44607;DHT22;30315;46.072;14.474;2023-04-03T04:06:16;10.50;51.70
44607;DHT22;30315;46.072;14.474;2023-04-03T04:08:44;10.50;51.80
44607;DHT22;30315;46.072;14.474;2023-04-03T04:11:12;10.40;51.90
44607;DHT22;30315;46.072;14.474;2023-04-03T04:13:40;10.40;51.80
44607;DHT22;30315;46.072;14.474;2023-04-03T04:16:10;10.40;51.90
44607;DHT22;30315;46.072;14.474;2023-04-03T04:18:37;10.30;52.00
44607;DHT22;30315;46.072;14.474;2023-04-03T04:21:04;10.30;52.20
44607;DHT22;30315;46.072;14.474;2023-04-03T04:23:32;10.20;52.10
44607;DHT22;30315;46.072;14.474;2023-04-03T04:26:00;10.20;52.20
44607;DHT22;30315;46.072;14.474;2023-04-03T04:28:30;10.20;52.30
44607;DHT22;30315;46.072;14.474;2023-04-03T04:30:59;10.20;52.00
44607;DHT22;30315;46.072;14.474;2023-04-03T04:33:27;10.10;52.00
44607;DHT22;30315;46.072;14.474;2023-04-03T04:35:56;10.20;52.10
44607;DHT22;30315;46.072;14.474;2023-04-03T04:38:24;10.10;52.20
44607;DHT22;30315;46.072;14.474;2023-04-03T04:40:52;10.10;52.10
44607;DHT22;30315;46.072;14.474;2023-04-03T04:43:20;10.10;52.10
44607;DHT22;30315;46.072;14.474;2023-04-03T04:46:09;10.00;52.10
44607;DHT22;30315;46.072;14.474;2023-04-03T04:48:43;10.00;51.90
44607;DHT22;30315;46.072;14.474;2023-04-03T04:51:11;10.00;52.30
44607;DHT22;30315;46.072;14.474;2023-04-03T04:53:39;9.90;53.10
44607;DHT22;30315;46.072;14.474;2023-04-03T04:56:07;9.90;53.20
44607;DHT22;30315;46.072;14.474;2023-04-03T04:58:36;10.00;52.10
44607;DHT22;30315;46.072;14.474;2023-04-03T05:01:06;9.90;53.30
44607;DHT22;30315;46.072;14.474;2023-04-03T05:03:37;9.90;53.50
44607;DHT22;30315;46.072;14.474;2023-04-03T05:06:04;10.00;52.50
44607;DHT22;30315;46.072;14.474;2023-04-03T05:08:33;9.90;53.10
44607;DHT22;30315;46.072;14.474;2023-04-03T05:11:00;9.70;52.90
44607;DHT22;30315;46.072;14.474;2023-04-03T05:13:28;10.00;51.90
44607;DHT22;30315;46.072;14.474;2023-04-03T05:15:56;10.00;52.10
44607;DHT22;30315;46.072;14.474;2023-04-03T05:18:23;10.00;51.90
44607;DHT22;30315;46.072;14.474;2023-04-03T05:20:53;10.10;51.90
44607;DHT22;30315;46.072;14.474;2023-04-03T05:23:21;10.10;52.20
44607;DHT22;30315;46.072;14.474;2023-04-03T05:25:48;10.00;51.40
44607;DHT22;30315;46.072;14.474;2023-04-03T05:28:17;10.00;52.00
44607;DHT22;30315;46.072;14.474;2023-04-03T05:30:44;10.00;51.20
44607;DHT22;30315;46.072;14.474;2023-04-03T05:33:11;10.00;51.30
44607;DHT22;30315;46.072;14.474;2023-04-03T05:35:45;10.00;51.20
44607;DHT22;30315;46.072;14.474;2023-04-03T05:38:17;10.00;51.20
44607;DHT22;30315;46.072;14.474;2023-04-03T05:40:44;10.00;51.10
44607;DHT22;30315;46.072;14.474;2023-04-03T05:43:11;10.00;51.10
44607;DHT22;30315;46.072;14.474;2023-04-03T05:45:42;10.00;50.90
44607;DHT22;30315;46.072;14.474;2023-04-03T05:48:13;10.00;50.70
44607;DHT22;30315;46.072;14.474;2023-04-03T05:50:40;10.00;50.90
44607;DHT22;30315;46.072;14.474;2023-04-03T05:53:20;10.00;50.90
44607;DHT22;30315;46.072;14.474;2023-04-03T05:55:48;10.10;51.40
44607;DHT22;30315;46.072;14.474;2023-04-03T05:58:16;10.10;50.90
44607;DHT22;30315;46.072;14.474;2023-04-03T06:00:45;9.90;51.60
44607;DHT22;30315;46.072;14.474;2023-04-03T06:03:12;10.10;50.60
44607;DHT22;30315;46.072;14.474;2023-04-03T06:05:40;10.20;50.40
44607;DHT22;30315;46.072;14.474;2023-04-03T06:08:07;10.10;50.20
44607;DHT22;30315;46.072;14.474;2023-04-03T06:10:36;10.20;50.50
44607;DHT22;30315;46.072;14.474;2023-04-03T06:13:03;10.20;50.40
44607;DHT22;30315;46.072;14.474;2023-04-03T06:15:30;10.20;50.20
44607;DHT22;30315;46.072;14.474;2023-04-03T06:18:03;10.20;50.50
44607;DHT22;30315;46.072;14.474;2023-04-03T06:20:31;10.30;50.10
44607;DHT22;30315;46.072;14.474;2023-04-03T06:22:58;10.30;50.50
44607;DHT22;30315;46.072;14.474;2023-04-03T06:25:26;10.40;50.10
44607;DHT22;30315;46.072;14.474;2023-04-03T06:27:54;10.40;50.10
44607;DHT22;30315;46.072;14.474;2023-04-03T06:30:22;10.40;49.70
44607;DHT22;30315;46.072;14.474;2023-04-03T06:32:49;10.50;49.30
44607;DHT22;30315;46.072;14.474;2023-04-03T06:35:17;10.40;49.20
44607;DHT22;30315;46.072;14.474;2023-04-03T06:37:44;10.50;49.20
44607;DHT22;30315;46.072;14.474;2023-04-03T06:40:19;10.50;49.30
44607;DHT22;30315;46.072;14.474;2023-04-03T06:42:47;10.50;49.30
44607;DHT22;30315;46.072;14.474;2023-04-03T06:45:16;10.50;49.30
44607;DHT22;30315;46.072;14.474;2023-04-03T06:47:43;10.50;48.90
44607;DHT22;30315;46.072;14.474;2023-04-03T06:50:12;10.60;48.80
44607;DHT22;30315;46.072;14.474;2023-04-03T06:52:41;10.70;48.70
44607;DHT22;30315;46.072;14.474;2023-04-03T06:55:09;10.70;48.60
44607;DHT22;30315;46.072;14.474;2023-04-03T06:57:37;10.80;48.60
44607;DHT22;30315;46.072;14.474;2023-04-03T07:00:05;11.10;48.70
44607;DHT22;30315;46.072;14.474;2023-04-03T07:02:32;10.90;48.50
44607;DHT22;30315;46.072;14.474;2023-04-03T07:04:59;11.00;48.20
44607;DHT22;30315;46.072;14.474;2023-04-03T07:07:26;11.00;48.10
44607;DHT22;30315;46.072;14.474;2023-04-03T07:09:53;11.10;48.00
44607;DHT22;30315;46.072;14.474;2023-04-03T07:12:20;11.10;47.60
44607;DHT22;30315;46.072;14.474;2023-04-03T07:14:47;11.20;47.30
44607;DHT22;30315;46.072;14.474;2023-04-03T07:17:14;11.20;45.80
44607;DHT22;30315;46.072;14.474;2023-04-03T07:19:41;11.20;45.60
44607;DHT22;30315;46.072;14.474;2023-04-03T07:22:08;11.30;45.40
44607;DHT22;30315;46.072;14.474;2023-04-03T07:24:36;11.30;44.80
44607;DHT22;30315;46.072;14.474;2023-04-03T07:27:03;11.30;44.60
44607;DHT22;30315;46.072;14.474;2023-04-03T07:29:30;11.40;44.50
44607;DHT22;30315;46.072;14.474;2023-04-03T07:31:57;11.40;44.20
44607;DHT22;30315;46.072;14.474;2023-04-03T07:34:24;11.50;44.80
44607;DHT22;30315;46.072;14.474;2023-04-03T07:36:51;11.60;43.80
44607;DHT22;30315;46.072;14.474;2023-04-03T07:39:18;11.60;43.40
44607;DHT22;30315;46.072;14.474;2023-04-03T07:41:45;11.60;43.40
44607;DHT22;30315;46.072;14.474;2023-04-03T07:44:12;11.70;43.70
44607;DHT22;30315;46.072;14.474;2023-04-03T07:46:39;11.70;43.40
44607;DHT22;30315;46.072;14.474;2023-04-03T07:49:07;11.80;43.00
44607;DHT22;30315;46.072;14.474;2023-04-03T07:51:34;11.80;42.70
44607;DHT22;30315;46.072;14.474;2023-04-03T07:54:01;11.90;42.70
44607;DHT22;30315;46.072;14.474;2023-04-03T07:56:28;11.90;42.80
44607;DHT22;30315;46.072;14.474;2023-04-03T07:58:55;12.00;42.60
44607;DHT22;30315;46.072;14.474;2023-04-03T08:01:22;12.10;42.20
44607;DHT22;30315;46.072;14.474;2023-04-03T08:03:49;12.10;41.30
44607;DHT22;30315;46.072;14.474;2023-04-03T08:06:17;12.10;41.20
44607;DHT22;30315;46.072;14.474;2023-04-03T08:08:55;12.10;41.40
44607;DHT22;30315;46.072;14.474;2023-04-03T08:11:22;12.20;41.30
44607;DHT22;30315;46.072;14.474;2023-04-03T08:13:50;12.20;40.80
44607;DHT22;30315;46.072;14.474;2023-04-03T08:16:21;12.30;40.70
44607;DHT22;30315;46.072;14.474;2023-04-03T08:18:49;12.30;40.50
44607;DHT22;30315;46.072;14.474;2023-04-03T08:21:16;12.30;40.50
44607;DHT22;30315;46.072;14.474;2023-04-03T08:23:43;12.40;42.00
44607;DHT22;30315;46.072;14.474;2023-04-03T08:26:15;12.50;42.90
44607;DHT22;30315;46.072;14.474;2023-04-03T08:28:42;12.60;43.20
44607;DHT22;30315;46.072;14.474;2023-04-03T08:31:15;12.70;42.60
44607;DHT22;30315;46.072;14.474;2023-04-03T08:33:42;12.80;42.00
44607;DHT22;30315;46.072;14.474;2023-04-03T08:36:20;12.90;41.80
44607;DHT22;30315;46.072;14.474;2023-04-03T08:38:49;13.00;42.30
44607;DHT22;30315;46.072;14.474;2023-04-03T08:41:31;13.10;41.80
44607;DHT22;30315;46.072;14.474;2023-04-03T08:49:33;13.40;39.90
44607;DHT22;30315;46.072;14.474;2023-04-03T08:52:08;13.40;38.50
44607;DHT22;30315;46.072;14.474;2023-04-03T08:54:52;13.80;38.80
44607;DHT22;30315;46.072;14.474;2023-04-03T08:57:38;13.20;38.20
44607;DHT22;30315;46.072;14.474;2023-04-03T09:00:19;13.20;37.80
44607;DHT22;30315;46.072;14.474;2023-04-03T09:02:48;13.20;38.30
44607;DHT22;30315;46.072;14.474;2023-04-03T09:05:29;13.20;38.10
44607;DHT22;30315;46.072;14.474;2023-04-03T09:08:12;13.10;37.30
44607;DHT22;30315;46.072;14.474;2023-04-03T09:10:42;13.20;37.80
44607;DHT22;30315;46.072;14.474;2023-04-03T09:19:17;13.20;37.20
44607;DHT22;30315;46.072;14.474;2023-04-03T09:21:47;13.20;36.90
44607;DHT22;30315;46.072;14.474;2023-04-03T09:24:16;13.20;37.30
44607;DHT22;30315;46.072;14.474;2023-04-03T09:27:01;13.20;37.20
44607;DHT22;30315;46.072;14.474;2023-04-03T09:29:30;13.20;37.20
44607;DHT22;30315;46.072;14.474;2023-04-03T09:32:01;13.30;37.30
44607;DHT22;30315;46.072;14.474;2023-04-03T09:34:37;13.40;37.00
44607;DHT22;30315;46.072;14.474;2023-04-03T09:37:05;13.30;36.40
44607;DHT22;30315;46.072;14.474;2023-04-03T09:39:52;13.40;36.70
44607;DHT22;30315;46.072;14.474;2023-04-03T09:42:22;13.40;36.40
44607;DHT22;30315;46.072;14.474;2023-04-03T09:44:57;13.50;36.60
44607;DHT22;30315;46.072;14.474;2023-04-03T09:47:32;13.40;35.80
44607;DHT22;30315;46.072;14.474;2023-04-03T09:52:37;13.50;35.80
44607;DHT22;30315;46.072;14.474;2023-04-03T09:57:40;13.60;36.50
44607;DHT22;30315;46.072;14.474;2023-04-03T10:00:35;13.70;36.20
44607;DHT22;30315;46.072;14.474;2023-04-03T10:03:04;13.80;36.20
44607;DHT22;30315;46.072;14.474;2023-04-03T10:05:40;13.80;36.10
44607;DHT22;30315;46.072;14.474;2023-04-03T10:10:46;14.00;35.70
44607;DHT22;30315;46.072;14.474;2023-04-03T10:13:17;14.10;35.70
44607;DHT22;30315;46.072;14.474;2023-04-03T10:15:51;14.10;35.30
44607;DHT22;30315;46.072;14.474;2023-04-03T10:18:44;14.10;35.40
44607;DHT22;30315;46.072;14.474;2023-04-03T10:21:45;14.20;35.00
44607;DHT22;30315;46.072;14.474;2023-04-03T10:27:12;14.40;35.20
44607;DHT22;30315;46.072;14.474;2023-04-03T10:29:54;14.40;34.80
44607;DHT22;30315;46.072;14.474;2023-04-03T10:35:18;14.50;33.30
44607;DHT22;30315;46.072;14.474;2023-04-03T10:41:13;14.40;33.40
44607;DHT22;30315;46.072;14.474;2023-04-03T10:44:36;14.40;33.00
44607;DHT22;30315;46.072;14.474;2023-04-03T10:49:42;14.40;33.00
44607;DHT22;30315;46.072;14.474;2023-04-03T10:55:31;14.50;33.10
44607;DHT22;30315;46.072;14.474;2023-04-03T10:57:59;14.50;33.10
44607;DHT22;30315;46.072;14.474;2023-04-03T11:00:39;14.60;33.50
44607;DHT22;30315;46.072;14.474;2023-04-03T11:03:24;14.70;33.50
44607;DHT22;30315;46.072;14.474;2023-04-03T11:05:55;14.70;33.20
44607;DHT22;30315;46.072;14.474;2023-04-03T11:08:46;14.70;33.60
44607;DHT22;30315;46.072;14.474;2023-04-03T11:12:00;14.90;33.70
44607;DHT22;30315;46.072;14.474;2023-04-03T11:14:40;15.00;33.70
44607;DHT22;30315;46.072;14.474;2023-04-03T11:20:16;15.20;33.60
44607;DHT22;30315;46.072;14.474;2023-04-03T11:22:51;15.50;33.60
44607;DHT22;30315;46.072;14.474;2023-04-03T11:25:38;15.40;33.70
44607;DHT22;30315;46.072;14.474;2023-04-03T11:28:28;15.30;32.70
44607;DHT22;30315;46.072;14.474;2023-04-03T11:36:54;15.40;32.20
44607;DHT22;30315;46.072;14.474;2023-04-03T11:39:29;15.40;31.80
44607;DHT22;30315;46.072;14.474;2023-04-03T11:44:42;15.60;31.70
44607;DHT22;30315;46.072;14.474;2023-04-03T11:47:12;15.70;32.10
44607;DHT22;30315;46.072;14.474;2023-04-03T11:50:03;15.80;32.90
44607;DHT22;30315;46.072;14.474;2023-04-03T12:00:47;16.30;32.70
44607;DHT22;30315;46.072;14.474;2023-04-03T12:06:42;16.70;32.60
44607;DHT22;30315;46.072;14.474;2023-04-03T12:08:47;16.80;31.90
44607;DHT22;30315;46.072;14.474;2023-04-03T12:11:29;16.90;31.80
44607;DHT22;30315;46.072;14.474;2023-04-03T12:22:07;17.40;31.70
44607;DHT22;30315;46.072;14.474;2023-04-03T12:24:44;17.50;32.20
44607;DHT22;30315;46.072;14.474;2023-04-03T12:27:28;17.60;31.60
44607;DHT22;30315;46.072;14.474;2023-04-03T12:33:02;17.60;31.00
44607;DHT22;30315;46.072;14.474;2023-04-03T12:36:18;17.60;31.30
44607;DHT22;30315;46.072;14.474;2023-04-03T12:39:04;17.70;31.50
44607;DHT22;30315;46.072;14.474;2023-04-03T12:41:38;17.80;31.40
44607;DHT22;30315;46.072;14.474;2023-04-03T12:44:47;17.90;31.40
44607;DHT22;30315;46.072;14.474;2023-04-03T12:47:27;18.00;30.60
44607;DHT22;30315;46.072;14.474;2023-04-03T12:49:57;18.00;30.60
44607;DHT22;30315;46.072;14.474;2023-04-03T12:52:39;18.20;30.60
44607;DHT22;30315;46.072;14.474;2023-04-03T12:55:17;18.40;30.50
44607;DHT22;30315;46.072;14.474;2023-04-03T12:57:46;18.50;29.90
44607;DHT22;30315;46.072;14.474;2023-04-03T13:00:33;18.50;29.30
44607;DHT22;30315;46.072;14.474;2023-04-03T13:03:03;18.70;30.00
44607;DHT22;30315;46.072;14.474;2023-04-03T13:05:33;18.90;30.30
44607;DHT22;30315;46.072;14.474;2023-04-03T13:08:07;19.10;30.00
44607;DHT22;30315;46.072;14.474;2023-04-03T13:10:52;19.20;29.40
44607;DHT22;30315;46.072;14.474;2023-04-03T13:13:21;19.30;29.50
44607;DHT22;30315;46.072;14.474;2023-04-03T13:15:50;19.50;29.70
44607;DHT22;30315;46.072;14.474;2023-04-03T13:21:31;19.60;28.50
44607;DHT22;30315;46.072;14.474;2023-04-03T13:23:57;19.60;28.70
44607;DHT22;30315;46.072;14.474;2023-04-03T13:26:41;19.60;28.20
44607;DHT22;30315;46.072;14.474;2023-04-03T13:29:33;19.60;28.00
44607;DHT22;30315;46.072;14.474;2023-04-03T13:32:02;19.50;28.20
44607;DHT22;30315;46.072;14.474;2023-04-03T13:34:41;19.50;27.60
44607;DHT22;30315;46.072;14.474;2023-04-03T13:37:31;19.50;27.90
44607;DHT22;30315;46.072;14.474;2023-04-03T13:42:45;19.60;27.50
44607;DHT22;30315;46.072;14.474;2023-04-03T13:45:23;19.60;27.80
44607;DHT22;30315;46.072;14.474;2023-04-03T13:48:17;19.70;28.30
44607;DHT22;30315;46.072;14.474;2023-04-03T13:53:50;20.00;28.10
44607;DHT22;30315;46.072;14.474;2023-04-03T13:56:36;20.10;27.30
44607;DHT22;30315;46.072;14.474;2023-04-03T14:01:47;20.20;28.60
44607;DHT22;30315;46.072;14.474;2023-04-03T14:04:22;20.20;27.80
44607;DHT22;30315;46.072;14.474;2023-04-03T14:06:49;20.20;27.70
44607;DHT22;30315;46.072;14.474;2023-04-03T14:09:20;20.20;27.50
44607;DHT22;30315;46.072;14.474;2023-04-03T14:11:49;20.20;27.60
44607;DHT22;30315;46.072;14.474;2023-04-03T14:14:21;20.30;27.40
44607;DHT22;30315;46.072;14.474;2023-04-03T14:16:55;20.30;27.50
44607;DHT22;30315;46.072;14.474;2023-04-03T14:19:29;20.40;27.40
44607;DHT22;30315;46.072;14.474;2023-04-03T14:21:57;20.40;26.70
44607;DHT22;30315;46.072;14.474;2023-04-03T14:24:25;20.50;27.10
44607;DHT22;30315;46.072;14.474;2023-04-03T14:26:53;20.50;27.40
44607;DHT22;30315;46.072;14.474;2023-04-03T14:29:22;20.60;27.00
44607;DHT22;30315;46.072;14.474;2023-04-03T14:31:49;20.60;26.40
44607;DHT22;30315;46.072;14.474;2023-04-03T14:34:26;20.70;26.70
44607;DHT22;30315;46.072;14.474;2023-04-03T14:36:53;20.80;26.90
44607;DHT22;30315;46.072;14.474;2023-04-03T14:39:20;20.90;27.10
44607;DHT22;30315;46.072;14.474;2023-04-03T14:41:47;21.10;26.70
44607;DHT22;30315;46.072;14.474;2023-04-03T14:44:14;21.10;26.20
44607;DHT22;30315;46.072;14.474;2023-04-03T14:46:43;21.20;26.30
44607;DHT22;30315;46.072;14.474;2023-04-03T14:49:26;21.10;26.30
44607;DHT22;30315;46.072;14.474;2023-04-03T14:51:58;21.00;26.00
44607;DHT22;30315;46.072;14.474;2023-04-03T14:54:25;21.00;26.30
44607;DHT22;30315;46.072;14.474;2023-04-03T14:56:55;21.00;26.00
44607;DHT22;30315;46.072;14.474;2023-04-03T14:59:23;21.00;26.00
44607;DHT22;30315;46.072;14.474;2023-04-03T15:01:51;21.00;26.20
44607;DHT22;30315;46.072;14.474;2023-04-03T15:04:20;21.00;26.00
44607;DHT22;30315;46.072;14.474;2023-04-03T15:06:48;21.00;25.80
44607;DHT22;30315;46.072;14.474;2023-04-03T15:09:25;20.90;26.30
44607;DHT22;30315;46.072;14.474;2023-04-03T15:11:54;21.00;26.30
44607;DHT22;30315;46.072;14.474;2023-04-03T15:14:22;21.10;26.30
44607;DHT22;30315;46.072;14.474;2023-04-03T15:17:04;21.10;26.50
44607;DHT22;30315;46.072;14.474;2023-04-03T15:19:42;21.10;26.50
44607;DHT22;30315;46.072;14.474;2023-04-03T15:22:19;21.20;26.80
44607;DHT22;30315;46.072;14.474;2023-04-03T15:24:46;21.30;26.70
44607;DHT22;30315;46.072;14.474;2023-04-03T15:27:13;21.30;26.30
44607;DHT22;30315;46.072;14.474;2023-04-03T15:29:42;21.30;26.20
44607;DHT22;30315;46.072;14.474;2023-04-03T15:32:10;21.40;26.40
44607;DHT22;30315;46.072;14.474;2023-04-03T15:34:38;21.40;26.30
44607;DHT22;30315;46.072;14.474;2023-04-03T15:37:05;21.50;26.00
44607;DHT22;30315;46.072;14.474;2023-04-03T15:39:32;21.40;25.90
44607;DHT22;30315;46.072;14.474;2023-04-03T15:41:59;21.20;25.50
44607;DHT22;30315;46.072;14.474;2023-04-03T15:44:33;21.20;25.90
44607;DHT22;30315;46.072;14.474;2023-04-03T15:47:01;21.00;25.40
44607;DHT22;30315;46.072;14.474;2023-04-03T15:49:28;20.90;25.40
44607;DHT22;30315;46.072;14.474;2023-04-03T15:51:56;20.80;25.50
44607;DHT22;30315;46.072;14.474;2023-04-03T15:54:23;20.80;25.90
44607;DHT22;30315;46.072;14.474;2023-04-03T15:56:52;20.70;25.60
44607;DHT22;30315;46.072;14.474;2023-04-03T15:59:19;20.60;25.40
44607;DHT22;30315;46.072;14.474;2023-04-03T16:01:46;20.50;25.40
44607;DHT22;30315;46.072;14.474;2023-04-03T16:04:14;20.40;25.80
44607;DHT22;30315;46.072;14.474;2023-04-03T16:06:42;20.90;26.60
44607;DHT22;30315;46.072;14.474;2023-04-03T16:09:10;20.50;26.40
44607;DHT22;30315;46.072;14.474;2023-04-03T16:11:37;20.40;26.20
44607;DHT22;30315;46.072;14.474;2023-04-03T16:14:07;20.40;26.30
44607;DHT22;30315;46.072;14.474;2023-04-03T16:16:35;20.40;26.50
44607;DHT22;30315;46.072;14.474;2023-04-03T16:19:03;20.30;26.00
44607;DHT22;30315;46.072;14.474;2023-04-03T16:21:31;20.20;26.30
44607;DHT22;30315;46.072;14.474;2023-04-03T16:23:59;20.10;26.10
44607;DHT22;30315;46.072;14.474;2023-04-03T16:26:26;20.00;25.90
44607;DHT22;30315;46.072;14.474;2023-04-03T16:28:53;19.70;25.60
44607;DHT22;30315;46.072;14.474;2023-04-03T16:31:21;19.40;25.40
44607;DHT22;30315;46.072;14.474;2023-04-03T16:33:49;19.20;25.70
44607;DHT22;30315;46.072;14.474;2023-04-03T16:36:16;18.90;26.10
44607;DHT22;30315;46.072;14.474;2023-04-03T16:38:44;18.60;26.40
44607;DHT22;30315;46.072;14.474;2023-04-03T16:41:10;18.40;26.50
44607;DHT22;30315;46.072;14.474;2023-04-03T16:43:38;18.10;26.10
44607;DHT22;30315;46.072;14.474;2023-04-03T16:46:04;17.70;26.60
44607;DHT22;30315;46.072;14.474;2023-04-03T16:48:31;17.40;26.80
44607;DHT22;30315;46.072;14.474;2023-04-03T16:50:58;17.10;26.90
44607;DHT22;30315;46.072;14.474;2023-04-03T16:53:27;16.90;27.20
44607;DHT22;30315;46.072;14.474;2023-04-03T16:55:56;16.60;27.70
44607;DHT22;30315;46.072;14.474;2023-04-03T16:58:26;16.40;27.90
44607;DHT22;30315;46.072;14.474;2023-04-03T17:00:53;16.10;27.80
44607;DHT22;30315;46.072;14.474;2023-04-03T17:03:21;16.00;28.00
44607;DHT22;30315;46.072;14.474;2023-04-03T17:05:49;15.80;28.50
44607;DHT22;30315;46.072;14.474;2023-04-03T17:08:17;15.60;28.30
44607;DHT22;30315;46.072;14.474;2023-04-03T17:10:44;15.50;28.10
44607;DHT22;30315;46.072;14.474;2023-04-03T17:13:11;15.30;28.30
44607;DHT22;30315;46.072;14.474;2023-04-03T17:15:39;15.20;28.40